createdAt,value
2017-11-27T00:01:29.993Z,80.72
2017-11-27T00:03:57.503Z,81.06
2017-11-27T00:06:25.058Z,81.39
2017-11-27T00:08:52.640Z,81.21
2017-11-27T00:11:20.169Z,80.72
2017-11-27T00:13:47.728Z,80.39
2017-11-27T00:16:15.297Z,80.32
2017-11-27T00:18:42.845Z,80.33
2017-11-27T00:21:10.435Z,80.19
2017-11-27T00:23:38.031Z,79.99
2017-11-27T00:26:05.626Z,79.88
2017-11-27T00:28:33.173Z,79.68
2017-11-27T00:31:00.811Z,79.37
2017-11-27T00:33:28.365Z,79.18
2017-11-27T00:35:55.926Z,78.93
2017-11-27T00:38:23.508Z,79.68
2017-11-27T00:40:51.062Z,79.70
2017-11-27T00:43:18.634Z,78.98
2017-11-27T00:45:46.232Z,78.97
2017-11-27T00:48:13.792Z,78.90
2017-11-27T00:50:41.381Z,79.35
2017-11-27T00:53:09.036Z,78.80
2017-11-27T00:55:36.613Z,78.17
2017-11-27T00:58:04.189Z,78.25
2017-11-27T01:00:31.752Z,78.96
2017-11-27T01:02:59.334Z,79.67
2017-11-27T01:05:27.029Z,77.80
2017-11-27T01:07:54.573Z,77.81
2017-11-27T01:10:22.128Z,77.78
2017-11-27T01:12:49.654Z,76.94
2017-11-27T01:15:17.193Z,77.25
2017-11-27T01:17:44.784Z,77.14
2017-11-27T01:20:12.318Z,77.01
2017-11-27T01:22:39.886Z,77.38
2017-11-27T01:25:07.594Z,77.35
2017-11-27T01:27:35.158Z,77.56
2017-11-27T01:30:02.691Z,77.77
2017-11-27T01:32:30.243Z,77.73
2017-11-27T01:34:57.786Z,78.14
2017-11-27T01:37:25.352Z,77.69
2017-11-27T01:39:52.935Z,77.85
2017-11-27T01:42:20.503Z,78.40
2017-11-27T01:44:48.093Z,78.60
2017-11-27T01:47:15.672Z,77.74
2017-11-27T01:49:43.223Z,77.85
2017-11-27T01:52:10.906Z,77.68
2017-11-27T01:54:38.502Z,78.53
2017-11-27T01:57:06.082Z,78.27
2017-11-27T01:59:33.665Z,78.52
2017-11-27T02:02:01.235Z,78.47
2017-11-27T02:04:28.803Z,78.15
2017-11-27T02:06:56.383Z,78.25
2017-11-27T02:09:23.987Z,78.95
2017-11-27T02:11:51.557Z,79.24
2017-11-27T02:14:19.110Z,79.60
2017-11-27T02:16:46.679Z,79.50
2017-11-27T02:19:14.213Z,78.89
2017-11-27T02:21:41.757Z,78.72
2017-11-27T02:24:09.325Z,78.77
2017-11-27T02:26:36.875Z,78.85
2017-11-27T02:29:04.526Z,79.19
2017-11-27T02:31:32.093Z,78.99
2017-11-27T02:33:59.636Z,78.69
2017-11-27T02:36:27.190Z,79.09
2017-11-27T02:38:54.774Z,79.12
2017-11-27T02:41:22.366Z,79.21
2017-11-27T02:43:49.923Z,78.52
2017-11-27T02:46:17.510Z,79.13
2017-11-27T02:48:45.052Z,78.93
2017-11-27T02:51:12.736Z,78.67
2017-11-27T02:53:40.777Z,78.20
2017-11-27T02:56:08.661Z,78.53
2017-11-27T02:58:36.208Z,77.63
2017-11-27T03:01:03.758Z,77.80
2017-11-27T03:03:31.801Z,78.68
2017-11-27T03:05:59.458Z,77.67
2017-11-27T03:08:27.008Z,78.15
2017-11-27T03:10:54.580Z,78.78
2017-11-27T03:13:22.271Z,79.12
2017-11-27T03:15:49.806Z,78.76
2017-11-27T03:18:17.369Z,79.25
2017-11-27T03:20:44.929Z,79.75
2017-11-27T03:23:12.714Z,79.92
2017-11-27T03:25:40.316Z,79.16
2017-11-27T03:28:07.917Z,79.51
2017-11-27T03:30:37.193Z,79.53
2017-11-27T03:33:04.863Z,79.70
2017-11-27T03:35:32.417Z,79.33
2017-11-27T03:38:00.041Z,79.43
2017-11-27T03:40:27.578Z,79.23
2017-11-27T03:42:55.183Z,78.95
2017-11-27T03:45:22.819Z,79.56
2017-11-27T03:47:50.486Z,79.78
2017-11-27T03:50:18.042Z,80.25
2017-11-27T03:52:45.641Z,80.77
2017-11-27T03:55:13.521Z,81.74
2017-11-27T03:57:41.073Z,82.61
2017-11-27T04:00:08.664Z,82.70
2017-11-27T04:02:36.243Z,82.41
2017-11-27T04:05:03.827Z,82.12
2017-11-27T04:07:31.394Z,82.45
2017-11-27T04:09:58.976Z,82.37
2017-11-27T04:12:26.527Z,82.63
2017-11-27T04:14:54.105Z,82.85
2017-11-27T04:17:21.705Z,82.66
2017-11-27T04:19:49.241Z,83.22
2017-11-27T04:22:16.779Z,83.50
2017-11-27T04:24:44.352Z,83.18
2017-11-27T04:27:11.891Z,83.98
2017-11-27T04:29:39.462Z,84.00
2017-11-27T04:32:07.015Z,83.98
2017-11-27T04:34:35.282Z,84.68
2017-11-27T04:37:03.208Z,85.43
2017-11-27T04:39:31.103Z,84.99
2017-11-27T04:41:58.623Z,85.18
2017-11-27T04:44:26.158Z,85.59
2017-11-27T04:46:53.676Z,85.55
2017-11-27T04:49:21.208Z,85.54
2017-11-27T04:51:48.716Z,85.75
2017-11-27T04:54:16.233Z,85.58
2017-11-27T04:56:43.701Z,85.62
2017-11-27T04:59:11.247Z,84.16
2017-11-27T05:01:38.772Z,84.44
2017-11-27T05:04:06.292Z,83.74
2017-11-27T05:06:33.826Z,83.75
2017-11-27T05:09:01.392Z,82.92
2017-11-27T05:11:28.931Z,83.41
2017-11-27T05:13:56.469Z,83.37
2017-11-27T05:16:24.275Z,83.25
2017-11-27T05:18:52.022Z,82.59
2017-11-27T05:21:19.595Z,82.36
2017-11-27T05:23:47.159Z,82.70
2017-11-27T05:26:14.707Z,82.34
2017-11-27T05:28:42.296Z,82.32
2017-11-27T05:31:10.128Z,82.28
2017-11-27T05:33:37.701Z,82.30
2017-11-27T05:36:05.270Z,81.81
2017-11-27T05:38:32.815Z,82.55
2017-11-27T05:41:00.343Z,82.16
2017-11-27T05:43:28.053Z,82.15
2017-11-27T05:45:55.625Z,82.36
2017-11-27T05:48:23.236Z,82.14
2017-11-27T05:50:50.800Z,82.64
2017-11-27T05:53:18.348Z,82.48
2017-11-27T05:55:45.910Z,81.07
2017-11-27T05:58:13.492Z,82.08
2017-11-27T06:00:41.092Z,81.89
2017-11-27T06:03:08.862Z,81.68
2017-11-27T06:05:36.492Z,82.05
2017-11-27T06:08:04.105Z,81.85
2017-11-27T06:10:32.222Z,82.01
2017-11-27T06:12:59.771Z,81.64
2017-11-27T06:15:27.325Z,81.86
2017-11-27T06:17:54.877Z,82.11
2017-11-27T06:20:22.412Z,82.29
2017-11-27T06:22:49.973Z,82.07
2017-11-27T06:25:17.513Z,82.79
2017-11-27T06:27:45.072Z,82.46
2017-11-27T06:30:12.825Z,82.61
2017-11-27T06:32:40.400Z,82.83
2017-11-27T06:35:07.989Z,82.85
2017-11-27T06:37:35.566Z,83.05
2017-11-27T06:40:03.091Z,83.02
2017-11-27T06:42:30.652Z,82.92
2017-11-27T06:44:58.215Z,83.28
2017-11-27T06:47:25.761Z,83.07
2017-11-27T06:49:53.297Z,82.14
2017-11-27T06:52:20.868Z,81.21
2017-11-27T06:54:48.404Z,82.15
2017-11-27T06:57:16.285Z,81.46
2017-11-27T06:59:43.844Z,81.33
2017-11-27T07:02:11.392Z,80.94
2017-11-27T07:04:38.935Z,80.76
2017-11-27T07:07:06.639Z,80.66
2017-11-27T07:09:34.170Z,79.76
2017-11-27T07:12:01.680Z,79.80
2017-11-27T07:14:29.244Z,80.20
2017-11-27T07:16:56.792Z,79.40
2017-11-27T07:19:24.330Z,78.88
2017-11-27T07:21:51.893Z,78.71
2017-11-27T07:24:19.423Z,78.40
2017-11-27T07:26:46.979Z,78.29
2017-11-27T07:29:14.624Z,78.34
2017-11-27T07:31:42.166Z,78.22
2017-11-27T07:34:09.727Z,79.15
2017-11-27T07:36:37.286Z,78.26
2017-11-27T07:39:10.432Z,78.14
2017-11-27T07:41:38.040Z,77.35
2017-11-27T07:44:05.607Z,77.87
2017-11-27T07:46:33.197Z,78.06
2017-11-27T07:49:00.763Z,77.70
2017-11-27T07:51:28.303Z,77.87
2017-11-27T07:53:55.851Z,77.52
2017-11-27T07:56:23.419Z,77.07
2017-11-27T07:58:50.959Z,76.89
2017-11-27T08:01:18.513Z,77.13
2017-11-27T08:03:46.114Z,77.65
2017-11-27T08:06:13.655Z,76.98
2017-11-27T08:08:41.324Z,77.42
2017-11-27T08:11:09.182Z,77.34
2017-11-27T08:13:38.193Z,77.43
2017-11-27T08:16:05.817Z,77.59
2017-11-27T08:18:33.430Z,77.98
2017-11-27T08:21:00.974Z,77.69
2017-11-27T08:23:29.929Z,78.59
2017-11-27T08:25:57.570Z,78.40
2017-11-27T08:28:25.133Z,78.59
2017-11-27T08:30:52.660Z,78.96
2017-11-27T08:33:20.318Z,78.75
2017-11-27T08:35:47.934Z,78.48
2017-11-27T08:38:15.479Z,78.19
2017-11-27T08:40:43.057Z,77.88
2017-11-27T08:43:11.186Z,77.94
2017-11-27T08:45:39.713Z,77.31
2017-11-27T08:48:07.309Z,77.73
2017-11-27T08:50:34.895Z,76.95
2017-11-27T08:53:02.474Z,76.41
2017-11-27T08:55:30.037Z,76.79
2017-11-27T08:57:57.599Z,77.01
2017-11-27T09:00:25.172Z,75.64
2017-11-27T09:02:52.757Z,75.20
2017-11-27T09:05:33.054Z,74.67
2017-11-27T09:08:00.657Z,73.64
2017-11-27T09:10:30.280Z,73.91
2017-11-27T09:12:57.828Z,73.79
2017-11-27T09:15:25.393Z,74.10
2017-11-27T09:17:52.954Z,74.52
2017-11-27T09:20:20.617Z,72.89
2017-11-27T09:22:48.192Z,73.23
2017-11-27T09:25:16.089Z,72.62
2017-11-27T09:27:45.120Z,72.40
2017-11-27T09:30:12.741Z,72.91
2017-11-27T09:32:40.293Z,72.85
2017-11-27T09:35:07.882Z,72.08
2017-11-27T09:37:35.516Z,72.49
2017-11-27T09:40:03.076Z,71.89
2017-11-27T09:42:30.657Z,72.12
2017-11-27T09:44:58.268Z,72.33
2017-11-27T09:47:26.661Z,72.70
2017-11-27T09:49:54.225Z,73.38
2017-11-27T09:52:21.905Z,72.92
2017-11-27T09:54:49.858Z,72.60
2017-11-27T09:57:17.512Z,73.18
2017-11-27T09:59:45.110Z,73.97
2017-11-27T10:02:12.675Z,74.45
2017-11-27T10:04:40.280Z,74.27
2017-11-27T10:07:08.161Z,74.55
2017-11-27T10:09:35.785Z,74.58
2017-11-27T10:12:03.377Z,75.33
2017-11-27T10:14:30.966Z,76.09
2017-11-27T10:16:58.539Z,75.61
2017-11-27T10:19:26.742Z,74.19
2017-11-27T10:21:54.396Z,74.90
2017-11-27T10:24:23.579Z,76.04
2017-11-27T10:26:51.192Z,76.04
2017-11-27T10:29:18.750Z,75.62
2017-11-27T10:31:46.326Z,74.79
2017-11-27T10:34:13.916Z,75.20
2017-11-27T10:36:41.483Z,74.86
2017-11-27T10:39:09.163Z,75.68
2017-11-27T10:41:36.809Z,72.30
2017-11-27T10:44:04.546Z,72.76
2017-11-27T10:46:32.112Z,72.63
2017-11-27T10:48:59.794Z,71.73
2017-11-27T10:51:28.105Z,71.54
2017-11-27T10:53:55.757Z,71.85
2017-11-27T10:56:23.381Z,72.35
2017-11-27T10:58:51.032Z,72.74
2017-11-27T11:01:18.701Z,71.62
2017-11-27T11:03:48.277Z,71.67
2017-11-27T11:06:15.917Z,71.64
2017-11-27T11:08:43.508Z,70.62
2017-11-27T11:11:12.363Z,68.72
2017-11-27T11:13:40.318Z,68.67
2017-11-27T11:16:08.043Z,67.40
2017-11-27T11:18:36.200Z,67.53
2017-11-27T11:21:03.942Z,66.91
2017-11-27T11:23:31.997Z,66.79
2017-11-27T11:26:07.022Z,67.88
2017-11-27T11:28:34.794Z,66.11
2017-11-27T11:31:03.707Z,67.45
2017-11-27T11:33:31.309Z,68.33
2017-11-27T11:35:58.886Z,68.65
2017-11-27T11:38:26.441Z,67.46
2017-11-27T11:40:54.108Z,68.21
2017-11-27T11:43:21.690Z,67.73
2017-11-27T11:45:49.243Z,68.32
2017-11-27T11:48:16.850Z,67.96
2017-11-27T11:50:45.489Z,68.22
2017-11-27T11:53:13.204Z,66.69
2017-11-27T11:55:40.819Z,65.77
2017-11-27T12:00:36.186Z,65.65
2017-11-27T12:03:03.810Z,66.32
2017-11-27T12:05:31.348Z,65.53
2017-11-27T12:07:59.479Z,66.99
2017-11-27T12:10:27.097Z,65.78
2017-11-27T12:12:54.683Z,64.61
2017-11-27T12:15:22.269Z,66.13
2017-11-27T12:17:50.621Z,67.01
2017-11-27T12:20:18.249Z,67.81
2017-11-27T12:22:45.830Z,69.62
2017-11-27T12:25:13.439Z,69.75
2017-11-27T12:27:41.540Z,68.02
2017-11-27T12:30:09.930Z,68.71
2017-11-27T12:32:37.526Z,67.21
2017-11-27T12:35:06.014Z,66.28
2017-11-27T12:37:34.820Z,63.38
2017-11-27T12:40:02.400Z,61.17
2017-11-27T12:42:34.316Z,60.04
2017-11-27T12:45:01.945Z,58.79
2017-11-27T12:47:29.926Z,58.22
2017-11-27T12:49:57.518Z,54.82
2017-11-27T12:52:25.130Z,54.10
2017-11-27T12:54:52.713Z,52.82
2017-11-27T12:57:20.326Z,53.09
2017-11-27T12:59:47.907Z,52.33
2017-11-27T13:02:15.791Z,52.42
2017-11-27T13:04:43.406Z,50.88
2017-11-27T13:07:11.322Z,53.62
2017-11-27T13:09:38.871Z,54.01
2017-11-27T13:12:06.543Z,53.19
2017-11-27T13:14:34.086Z,52.88
2017-11-27T13:17:01.656Z,52.09
2017-11-27T13:19:29.244Z,53.10
2017-11-27T13:21:56.804Z,52.16
2017-11-27T13:24:24.411Z,52.98
2017-11-27T13:26:51.984Z,53.56
2017-11-27T13:29:19.659Z,52.39
2017-11-27T13:31:47.268Z,52.48
2017-11-27T13:34:14.816Z,54.91
2017-11-27T13:36:42.381Z,54.91
2017-11-27T13:39:10.023Z,55.61
2017-11-27T13:41:37.619Z,56.83
2017-11-27T13:44:05.177Z,57.80
2017-11-27T13:46:32.737Z,57.00
2017-11-27T13:49:00.293Z,56.46
2017-11-27T13:51:27.850Z,58.46
2017-11-27T13:53:55.407Z,61.30
2017-11-27T13:56:23.443Z,62.75
2017-11-27T13:58:51.506Z,63.82
2017-11-27T14:01:19.089Z,63.88
2017-11-27T14:03:46.644Z,64.75
2017-11-27T14:06:14.404Z,65.36
2017-11-27T14:08:41.948Z,65.55
2017-11-27T14:11:09.638Z,64.72
2017-11-27T14:13:37.251Z,65.18
2017-11-27T14:16:04.803Z,65.52
2017-11-27T14:18:32.366Z,66.11
2017-11-27T14:20:59.923Z,65.93
2017-11-27T14:23:27.631Z,66.27
2017-11-27T14:25:55.199Z,67.09
2017-11-27T14:28:23.770Z,67.82
2017-11-27T14:30:51.325Z,68.43
2017-11-27T14:33:18.916Z,68.17
2017-11-27T14:35:46.524Z,68.32
2017-11-27T14:38:14.158Z,68.73
2017-11-27T14:40:41.706Z,69.28
2017-11-27T14:43:09.377Z,69.78
2017-11-27T14:45:37.477Z,70.07
2017-11-27T14:48:05.182Z,70.22
2017-11-27T14:50:32.910Z,70.30
2017-11-27T14:53:00.446Z,70.48
2017-11-27T14:55:28.064Z,70.80
2017-11-27T14:57:55.708Z,70.80
2017-11-27T15:00:23.347Z,71.10
2017-11-27T15:02:52.790Z,71.51
2017-11-27T15:05:20.368Z,71.43
2017-11-27T15:07:47.966Z,72.21
2017-11-27T15:10:15.575Z,72.56
2017-11-27T15:12:43.158Z,72.04
2017-11-27T15:15:10.838Z,72.37
2017-11-27T15:17:38.417Z,72.62
2017-11-27T15:20:06.064Z,72.42
2017-11-27T15:22:33.660Z,72.84
2017-11-27T15:25:01.228Z,72.82
2017-11-27T15:27:29.289Z,73.40
2017-11-27T15:29:56.872Z,74.48
2017-11-27T15:32:24.505Z,74.87
2017-11-27T15:34:52.088Z,75.05
2017-11-27T15:37:19.736Z,75.16
2017-11-27T15:39:47.368Z,75.49
2017-11-27T15:42:14.979Z,76.18
2017-11-27T15:44:42.577Z,76.36
2017-11-27T15:47:10.380Z,76.55
2017-11-27T15:49:38.259Z,77.89
2017-11-27T15:52:06.167Z,76.99
2017-11-27T15:54:33.840Z,76.65
2017-11-27T15:57:01.468Z,77.08
2017-11-27T15:59:29.070Z,77.16
2017-11-27T16:01:56.669Z,77.62
2017-11-27T16:04:24.270Z,77.70
2017-11-27T16:06:51.863Z,77.99
2017-11-27T16:09:19.493Z,78.68
2017-11-27T16:11:47.085Z,78.90
2017-11-27T16:14:14.669Z,79.50
2017-11-27T16:16:42.224Z,79.28
2017-11-27T16:19:09.892Z,79.94
2017-11-27T16:21:37.455Z,80.60
2017-11-27T16:24:05.060Z,80.40
2017-11-27T16:26:32.680Z,81.12
2017-11-27T16:29:00.275Z,81.94
2017-11-27T16:31:27.977Z,82.74
2017-11-27T16:33:55.545Z,82.70
2017-11-27T16:36:24.605Z,83.37
2017-11-27T16:38:52.186Z,83.48
2017-11-27T16:41:19.787Z,83.34
2017-11-27T16:43:47.393Z,83.16
2017-11-27T16:46:14.969Z,82.91
2017-11-27T16:48:42.571Z,81.95
2017-11-27T16:51:10.184Z,81.38
2017-11-27T16:53:37.761Z,81.64
2017-11-27T16:56:05.320Z,80.72
2017-11-27T16:58:33.034Z,80.00
2017-11-27T17:01:00.617Z,79.37
2017-11-27T17:03:28.273Z,79.90
2017-11-27T17:05:55.990Z,79.75
2017-11-27T17:08:23.553Z,79.87
2017-11-27T17:10:51.193Z,79.57
2017-11-27T17:13:18.755Z,78.72
2017-11-27T17:15:46.360Z,79.14
2017-11-27T17:18:14.006Z,78.49
2017-11-27T17:20:41.642Z,77.20
2017-11-27T17:23:09.334Z,76.13
2017-11-27T17:25:36.952Z,76.38
2017-11-27T17:28:04.580Z,76.09
2017-11-27T17:30:32.443Z,75.19
2017-11-27T17:33:00.062Z,75.37
2017-11-27T17:35:27.727Z,76.24
2017-11-27T17:37:55.378Z,76.65
2017-11-27T17:40:23.042Z,76.44
2017-11-27T17:42:50.691Z,75.43
2017-11-27T17:45:18.400Z,75.60
2017-11-27T17:47:46.284Z,75.51
2017-11-27T17:50:13.900Z,75.25
2017-11-27T17:52:41.502Z,75.12
2017-11-27T17:55:09.140Z,75.10
2017-11-27T17:57:36.826Z,76.62
2017-11-27T18:00:05.187Z,74.79
2017-11-27T18:02:32.810Z,72.67
2017-11-27T18:05:00.404Z,72.91
2017-11-27T18:07:28.023Z,72.40
2017-11-27T18:09:55.734Z,72.61
2017-11-27T18:12:23.368Z,71.60
2017-11-27T18:14:50.936Z,71.23
2017-11-27T18:17:18.510Z,71.14
2017-11-27T18:19:46.109Z,71.71
2017-11-27T18:22:13.713Z,73.51
2017-11-27T18:24:41.293Z,75.09
2017-11-27T18:27:09.145Z,73.79
2017-11-27T18:29:36.790Z,74.71
2017-11-27T18:32:04.387Z,76.75
2017-11-27T18:34:31.968Z,75.88
2017-11-27T18:36:59.572Z,75.86
2017-11-27T18:39:27.157Z,76.23
2017-11-27T18:41:54.722Z,75.11
2017-11-27T18:44:22.323Z,74.21
2017-11-27T18:46:49.887Z,76.05
2017-11-27T18:49:17.466Z,75.99
2017-11-27T18:51:45.092Z,74.55
2017-11-27T18:54:12.653Z,76.56
2017-11-27T18:56:40.247Z,75.79
2017-11-27T18:59:07.854Z,74.80
2017-11-27T19:01:35.479Z,73.44
2017-11-27T19:04:03.041Z,73.63
2017-11-27T19:06:30.688Z,72.93
2017-11-27T19:08:58.267Z,72.33
2017-11-27T19:11:25.832Z,71.42
2017-11-27T19:13:53.444Z,71.77
2017-11-27T19:16:21.134Z,68.53
2017-11-27T19:18:48.695Z,68.30
2017-11-27T19:21:16.287Z,68.30
2017-11-27T19:23:44.028Z,67.15
2017-11-27T19:26:11.764Z,66.35
2017-11-27T19:28:39.453Z,65.67
2017-11-27T19:31:07.020Z,65.80
2017-11-27T19:33:34.633Z,65.10
2017-11-27T19:36:02.777Z,65.08
2017-11-27T19:38:30.522Z,64.12
2017-11-27T19:40:58.128Z,64.73
2017-11-27T19:43:25.886Z,63.99
2017-11-27T19:45:53.474Z,63.57
2017-11-27T19:48:21.117Z,64.12
2017-11-27T19:50:48.994Z,64.28
2017-11-27T19:53:16.566Z,64.16
2017-11-27T19:55:44.187Z,65.54
2017-11-27T19:58:11.761Z,63.83
2017-11-27T20:00:39.359Z,64.09
2017-11-27T20:03:07.022Z,63.48
2017-11-27T20:05:34.706Z,63.60
2017-11-27T20:08:02.306Z,64.23
2017-11-27T20:10:30.960Z,62.95
2017-11-27T20:12:58.555Z,62.66
2017-11-27T20:15:26.118Z,62.80
2017-11-27T20:17:53.715Z,63.14
2017-11-27T20:20:21.283Z,62.87
2017-11-27T20:22:48.911Z,62.95
2017-11-27T20:25:16.589Z,62.40
2017-11-27T20:27:44.228Z,62.90
2017-11-27T20:30:11.819Z,63.26
2017-11-27T20:32:39.407Z,64.26
2017-11-27T20:35:07.086Z,63.03
2017-11-27T20:37:34.688Z,63.24
2017-11-27T20:40:02.726Z,62.49
2017-11-27T20:42:30.383Z,62.58
2017-11-27T20:44:57.942Z,61.66
2017-11-27T20:47:25.675Z,61.16
2017-11-27T20:49:53.333Z,62.17
2017-11-27T20:52:20.923Z,60.98
2017-11-27T20:54:48.579Z,61.29
2017-11-27T20:57:16.221Z,61.41
2017-11-27T20:59:43.804Z,60.41
2017-11-27T21:02:11.370Z,60.26
2017-11-27T21:04:38.940Z,60.45
2017-11-27T21:07:06.545Z,60.29
2017-11-27T21:09:34.105Z,60.74
2017-11-27T21:12:01.726Z,61.09
2017-11-27T21:14:29.385Z,60.67
2017-11-27T21:19:30.659Z,60.77
2017-11-27T21:21:58.250Z,60.79
2017-11-27T21:24:25.876Z,60.51
2017-11-27T21:26:53.473Z,59.79
2017-11-27T21:29:21.072Z,59.53
2017-11-27T21:31:48.633Z,59.18
2017-11-27T21:34:16.184Z,59.43
2017-11-27T21:36:43.797Z,59.40
2017-11-27T21:39:11.472Z,59.68
2017-11-27T21:41:39.213Z,59.40
2017-11-27T21:44:06.814Z,59.30
2017-11-27T21:46:34.402Z,59.95
2017-11-27T21:49:01.968Z,59.25
2017-11-27T21:51:30.082Z,59.54
2017-11-27T21:53:57.703Z,59.39
2017-11-27T21:56:25.286Z,58.87
2017-11-27T21:58:52.867Z,59.62
2017-11-27T22:01:20.423Z,60.56
2017-11-27T22:03:48.005Z,60.05
2017-11-27T22:06:15.571Z,60.79
2017-11-27T22:08:43.210Z,61.05
2017-11-27T22:11:10.956Z,61.94
2017-11-27T22:13:38.541Z,61.26
2017-11-27T22:16:06.113Z,60.95
2017-11-27T22:18:33.728Z,61.41
2017-11-27T22:21:01.321Z,60.99
2017-11-27T22:23:28.942Z,60.95
2017-11-27T22:25:56.543Z,61.45
2017-11-27T22:28:24.130Z,61.94
2017-11-27T22:30:51.702Z,61.68
2017-11-27T22:33:19.333Z,61.60
2017-11-27T22:35:46.927Z,63.18
2017-11-27T22:38:14.548Z,63.20
2017-11-27T22:40:42.189Z,64.09
2017-11-27T22:43:09.830Z,64.14
2017-11-27T22:45:37.387Z,64.25
2017-11-27T22:48:04.994Z,64.99
2017-11-27T22:50:32.593Z,65.84
2017-11-27T22:53:00.167Z,66.39
2017-11-27T22:55:27.795Z,67.70
2017-11-27T22:57:55.382Z,67.91
2017-11-27T23:00:22.965Z,68.55
2017-11-27T23:02:50.600Z,66.47
2017-11-27T23:05:18.220Z,68.13
2017-11-27T23:07:45.848Z,68.65
2017-11-27T23:10:13.628Z,70.11
2017-11-27T23:12:41.212Z,70.37
2017-11-27T23:15:09.014Z,72.18
2017-11-27T23:17:36.589Z,72.33
2017-11-27T23:20:04.351Z,73.41
2017-11-27T23:22:31.946Z,73.72
2017-11-27T23:24:59.535Z,73.02
2017-11-27T23:27:27.094Z,72.51
2017-11-27T23:29:54.713Z,73.91
2017-11-27T23:32:22.388Z,74.46
2017-11-27T23:34:49.970Z,75.08
2017-11-27T23:37:17.559Z,75.10
2017-11-27T23:39:45.122Z,77.10
2017-11-27T23:42:12.716Z,76.54
2017-11-27T23:44:40.329Z,76.07
2017-11-27T23:47:07.947Z,74.59
2017-11-27T23:49:35.532Z,74.83
2017-11-27T23:52:03.479Z,75.80
2017-11-27T23:54:31.107Z,76.01
2017-11-27T23:56:58.659Z,76.46
2017-11-27T23:59:26.274Z,76.41
